| time (UTC) | temp F | wind direction | speed MPH | gust MPH | rain 1hr in | rain 24hr in | rain mn in | humidity % | barometer mb |
| 20260509200323 | 90 | 16 | 4.0 | 4.0 | 0.00 | 0.00 | 0.00 | 32 | 1011.2 |
| 20260509195323 | 91 | 15 | 3.0 | 6.0 | 0.00 | 0.00 | 0.00 | 33 | 1011.3 |
| 20260509193323 | 89 | 56 | 4.0 | 7.0 | 0.00 | 0.00 | 0.00 | 40 | 1011.5 |
| 20260509190424 | 88 | 89 | 3.0 | 5.0 | 0.00 | 0.00 | 0.00 | 43 | 1011.7 |
| 20260509185522 | 87 | 51 | 3.0 | 4.0 | 0.00 | 0.00 | 0.00 | 45 | 1011.7 |
| 20260509184523 | 86 | 4 | 1.0 | 6.0 | 0.00 | 0.00 | 0.00 | 46 | 1011.7 |
| 20260509182625 | 86 | 357 | 4.0 | 5.0 | 0.00 | 0.00 | 0.00 | 47 | 1012.0 |
| 20260509181624 | 85 | 64 | 2.0 | 5.0 | 0.00 | 0.00 | 0.00 | 47 | 1012.1 |
| 20260509175723 | 86 | 51 | 6.0 | 8.0 | 0.00 | 0.00 | 0.00 | 46 | 1012.2 |
| 20260509174723 | 87 | 32 | 5.0 | 6.0 | 0.00 | 0.00 | 0.00 | 44 | 1012.3 |
| 20260509173724 | 86 | 64 | 1.0 | 3.0 | 0.00 | 0.00 | 0.00 | 46 | 1012.3 |
| 20260509172822 | 85 | 287 | 5.0 | 7.0 | 0.00 | 0.00 | 0.00 | 47 | 1012.6 |
| 20260509171823 | 84 | 304 | 3.0 | 4.0 | 0.00 | 0.00 | 0.00 | 48 | 1012.7 |
| 20260509170921 | 84 | 294 | 4.0 | 6.0 | 0.00 | 0.00 | 0.00 | 48 | 1012.6 |
| 20260509165925 | 83 | 345 | 4.0 | 7.0 | 0.00 | 0.00 | 0.00 | 49 | 1012.6 |
| 20260509165023 | 84 | 335 | 3.0 | 6.0 | 0.00 | 0.00 | 0.00 | 49 | 1012.7 |
| 20260509163024 | 83 | 322 | 5.0 | 10.0 | 0.00 | 0.00 | 0.00 | 51 | 1012.9 |
| 20260509161123 | 82 | 42 | 3.0 | 4.0 | 0.00 | 0.00 | 0.00 | 56 | 1013.0 |
| 20260509160222 | 81 | 21 | 4.0 | 6.0 | 0.00 | 0.00 | 0.00 | 57 | 1013.0 |
| 20260509155223 | 80 | 26 | 5.0 | 8.0 | 0.00 | 0.00 | 0.00 | 58 | 1012.9 |
| 20260509154222 | 80 | 49 | 6.0 | 8.0 | 0.00 | 0.00 | 0.00 | 58 | 1012.9 |
| 20260509153226 | 78 | 22 | 5.0 | 7.0 | 0.00 | 0.00 | 0.00 | 59 | 1012.8 |
| 20260509152223 | 79 | 17 | 6.0 | 8.0 | 0.00 | 0.00 | 0.00 | 58 | 1012.7 |
| 20260509151222 | 78 | 7 | 5.0 | 8.0 | 0.00 | 0.00 | 0.00 | 59 | 1012.8 |
| 20260509145222 | 78 | 334 | 4.0 | 8.0 | 0.00 | 0.00 | 0.00 | 62 | 1012.8 |
| 20260509143322 | 75 | 28 | 5.0 | 6.0 | 0.00 | 0.00 | 0.00 | 66 | 1012.8 |
| 20260509142324 | 75 | 335 | 3.0 | 7.0 | 0.00 | 0.00 | 0.00 | 69 | 1013.0 |
| 20260509141327 | 74 | 344 | 3.0 | 4.0 | 0.00 | 0.00 | 0.00 | 72 | 1013.1 |
| 20260509135421 | 72 | 299 | 3.0 | 6.0 | 0.00 | 0.00 | 0.00 | 75 | 1013.2 |
| 20260509133424 | 71 | 309 | 5.0 | 7.0 | 0.00 | 0.00 | 0.00 | 74 | 1013.0 |
| 20260509132422 | 71 | 313 | 4.0 | 8.0 | 0.00 | 0.00 | 0.00 | 74 | 1012.9 |
| 20260509131423 | 70 | 315 | 5.0 | 9.0 | 0.00 | 0.00 | 0.00 | 74 | 1012.9 |
| 20260509130424 | 69 | 12 | 2.0 | 4.0 | 0.00 | 0.00 | 0.00 | 75 | 1013.0 |
| 20260509124524 | 69 | 324 | 3.0 | 6.0 | 0.00 | 0.00 | 0.00 | 74 | 1013.0 |
| 20260509123524 | 69 | 318 | 4.0 | 6.0 | 0.00 | 0.00 | 0.00 | 74 | 1012.9 |
| 20260509122623 | 68 | 322 | 2.0 | 5.0 | 0.00 | 0.00 | 0.00 | 75 | 1012.7 |
| 20260509121623 | 68 | 350 | 1.0 | 3.0 | 0.00 | 0.00 | 0.00 | 76 | 1012.7 |
| 20260509120623 | 68 | 12 | 3.0 | 6.0 | 0.00 | 0.00 | 0.00 | 77 | 1012.5 |
| 20260509114722 | 67 | 343 | 4.0 | 8.0 | 0.00 | 0.01 | 0.00 | 77 | 1012.5 |
| 20260509113723 | 67 | 1 | 2.0 | 3.0 | 0.00 | 0.01 | 0.00 | 76 | 1012.2 |
| 20260509112723 | 68 | 17 | 1.0 | 2.0 | 0.00 | 0.01 | 0.00 | 76 | 1011.9 |
| 20260509111723 | 68 | 90 | 1.0 | 1.0 | 0.00 | 0.01 | 0.00 | 75 | 1011.7 |
| 20260509110725 | 68 | 320 | 0.0 | 1.0 | 0.00 | 0.01 | 0.00 | 75 | 1011.6 |
| 20260509105822 | 68 | 281 | 2.0 | 4.0 | 0.00 | 0.01 | 0.00 | 74 | 1011.5 |
| 20260509103824 | 69 | 269 | 5.0 | 10.0 | 0.00 | 0.01 | 0.00 | 75 | 1011.7 |
| 20260509102824 | 69 | 271 | 4.0 | 5.0 | 0.00 | 0.01 | 0.00 | 75 | 1011.7 |
| 20260509101823 | 69 | 299 | 1.0 | 4.0 | 0.00 | 0.01 | 0.00 | 76 | 1011.6 |
| 20260509101725 | 69 | 254 | 1.0 | 2.0 | 0.00 | 0.01 | 0.00 | 76 | 1011.6 |
| 20260509100822 | 69 | 24 | 2.0 | 4.0 | 0.00 | 0.01 | 0.00 | 77 | 1011.6 |
| 20260509095823 | 69 | 358 | 4.0 | 6.0 | 0.00 | 0.01 | 0.00 | 77 | 1011.6 |
| 20260509094823 | 69 | 356 | 3.0 | 5.0 | 0.00 | 0.01 | 0.00 | 78 | 1011.6 |
| 20260509093922 | 70 | 302 | 7.0 | 11.0 | 0.00 | 0.01 | 0.00 | 81 | 1011.4 |
| 20260509092923 | 69 | 298 | 6.0 | 9.0 | 0.00 | 0.01 | 0.00 | 84 | 1009.6 |
| 20260509091923 | 69 | 183 | 6.0 | 10.0 | 0.00 | 0.01 | 0.00 | 84 | 1008.5 |
| 20260509090922 | 69 | 173 | 8.0 | 12.0 | 0.00 | 0.01 | 0.00 | 84 | 1008.5 |
| 20260509090021 | 69 | 198 | 9.0 | 14.0 | 0.00 | 0.01 | 0.00 | 84 | 1008.9 |
| 20260509085022 | 69 | 183 | 11.0 | 16.0 | 0.00 | 0.01 | 0.00 | 84 | 1009.0 |
| 20260509084023 | 69 | 182 | 9.0 | 13.0 | 0.00 | 0.01 | 0.00 | 83 | 1009.1 |
| 20260509083023 | 69 | 195 | 9.0 | 14.0 | 0.00 | 0.01 | 0.00 | 82 | 1009.4 |
| 20260509082121 | 68 | 190 | 7.0 | 13.0 | 0.00 | 0.01 | 0.00 | 83 | 1009.7 |
| 20260509081122 | 69 | 194 | 7.0 | 13.0 | 0.00 | 0.01 | 0.00 | 84 | 1010.1 |
| 20260509080122 | 69 | 188 | 8.0 | 11.0 | 0.00 | 0.01 | 0.00 | 83 | 1010.6 |
| 20260509075123 | 69 | 154 | 3.0 | 5.0 | 0.00 | 0.01 | 0.00 | 82 | 1010.8 |
| 20260509074124 | 69 | 152 | 4.0 | 6.0 | 0.00 | 0.01 | 0.00 | 82 | 1011.0 |
| 20260509073122 | 69 | 162 | 4.0 | 6.0 | 0.00 | 0.01 | 0.00 | 83 | 1011.9 |
| 20260509071124 | 70 | 227 | 5.0 | 7.0 | 0.00 | 0.01 | 0.00 | 83 | 1012.9 |
| 20260509070222 | 70 | 235 | 3.0 | 5.0 | 0.00 | 0.01 | 0.00 | 83 | 1013.5 |
| 20260509065222 | 70 | 281 | 6.0 | 11.0 | 0.00 | 0.01 | 0.00 | 84 | 1014.3 |
| 20260509064222 | 70 | 275 | 5.0 | 7.0 | 0.00 | 0.01 | 0.00 | 84 | 1014.0 |
| 20260509063222 | 69 | 285 | 3.0 | 6.0 | 0.00 | 0.01 | 0.00 | 85 | 1013.7 |
| 20260509061323 | 69 | 258 | 2.0 | 4.0 | 0.00 | 0.01 | 0.00 | 85 | 1013.8 |
| 20260509060322 | 69 | 241 | 1.0 | 3.0 | 0.00 | 0.01 | 0.00 | 85 | 1013.5 |
| 20260509055323 | 69 | 342 | 0.0 | 1.0 | 0.00 | 0.01 | 0.00 | 85 | 1013.5 |
| 20260509054322 | 69 | 43 | 2.0 | 3.0 | 0.00 | 0.01 | 0.00 | 84 | 1013.7 |
| 20260509052422 | 70 | 359 | 3.0 | 4.0 | 0.00 | 0.01 | 0.00 | 84 | 1013.4 |
| 20260509051423 | 70 | 90 | 0.0 | 1.0 | 0.00 | 0.01 | 0.00 | 84 | 1012.9 |
| 20260509045429 | 70 | 152 | 3.0 | 5.0 | 0.00 | 0.01 | 0.01 | 83 | 1012.4 |
| 20260509043430 | 71 | 128 | 1.0 | 2.0 | 0.00 | 0.01 | 0.01 | 81 | 1012.6 |
| 20260509042431 | 71 | 130 | 3.0 | 4.0 | 0.00 | 0.01 | 0.01 | 81 | 1012.6 |
| 20260509041431 | 71 | 138 | 3.0 | 4.0 | 0.00 | 0.01 | 0.01 | 81 | 1012.5 |
| 20260509040431 | 72 | 90 | 1.0 | 2.0 | 0.00 | 0.01 | 0.01 | 80 | 1012.7 |
| 20260509035429 | 72 | 90 | 2.0 | 3.0 | 0.00 | 0.01 | 0.01 | 80 | 1012.4 |
| 20260509034430 | 72 | 153 | 4.0 | 7.0 | 0.00 | 0.01 | 0.01 | 80 | 1012.2 |
| 20260509033431 | 72 | 166 | 5.0 | 8.0 | 0.00 | 0.01 | 0.01 | 80 | 1011.9 |
| 20260509032529 | 72 | 155 | 7.0 | 11.0 | 0.00 | 0.01 | 0.01 | 80 | 1011.2 |
| 20260509031530 | 72 | 183 | 4.0 | 6.0 | 0.00 | 0.01 | 0.01 | 79 | 1011.3 |
| 20260509030530 | 72 | 154 | 4.0 | 7.0 | 0.00 | 0.01 | 0.01 | 79 | 1011.3 |
| 20260509024630 | 72 | 144 | 3.0 | 7.0 | 0.00 | 0.01 | 0.01 | 79 | 1010.6 |
| 20260509023631 | 73 | 155 | 6.0 | 9.0 | 0.00 | 0.01 | 0.01 | 78 | 1010.2 |
| 20260509022631 | 73 | 164 | 4.0 | 8.0 | 0.00 | 0.01 | 0.01 | 77 | 1010.5 |
| 20260509020628 | 73 | 145 | 5.0 | 7.0 | 0.00 | 0.01 | 0.01 | 76 | 1010.6 |
| 20260509015728 | 73 | 137 | 4.0 | 5.0 | 0.00 | 0.01 | 0.01 | 76 | 1010.8 |
| 20260509014730 | 73 | 143 | 4.0 | 5.0 | 0.00 | 0.01 | 0.01 | 76 | 1010.9 |
| 20260509014628 | 73 | 135 | 3.0 | 4.0 | 0.00 | 0.01 | 0.01 | 76 | 1010.8 |
| 20260509013630 | 73 | 135 | 2.0 | 3.0 | 0.00 | 0.01 | 0.01 | 76 | 1010.9 |
| 20260509012648 | 73 | 135 | 2.0 | 4.0 | 0.00 | 0.01 | 0.01 | 75 | 1010.8 |
| 20260509011729 | 73 | 128 | 1.0 | 2.0 | 0.00 | 0.01 | 0.01 | 75 | 1010.7 |
| 20260509010730 | 73 | 151 | 1.0 | 3.0 | 0.00 | 0.01 | 0.01 | 75 | 1010.4 |
| 20260509005730 | 73 | 145 | 3.0 | 6.0 | 0.00 | 0.01 | 0.01 | 74 | 1010.2 |
| 20260509004828 | 74 | 106 | 3.0 | 6.0 | 0.00 | 0.01 | 0.01 | 74 | 1010.2 |
| 20260509003829 | 73 | 155 | 5.0 | 7.0 | 0.00 | 0.01 | 0.01 | 74 | 1010.0 |
| 20260509001831 | 74 | 193 | 4.0 | 6.0 | 0.00 | 0.01 | 0.01 | 74 | 1010.2 |
| 20260509000828 | 74 | 194 | 2.0 | 4.0 | 0.00 | 0.01 | 0.01 | 73 | 1010.3 |
| 20260508235828 | 74 | 187 | 4.0 | 5.0 | 0.00 | 0.01 | 0.01 | 72 | 1010.6 |
| 20260508234829 | 74 | 204 | 6.0 | 7.0 | 0.00 | 0.01 | 0.01 | 72 | 1010.6 |
| 20260508233828 | 74 | 221 | 3.0 | 5.0 | 0.00 | 0.01 | 0.01 | 72 | 1010.6 |
| 20260508232829 | 74 | 165 | 3.0 | 4.0 | 0.00 | 0.01 | 0.01 | 72 | 1010.6 |
| 20260508231829 | 74 | 170 | 4.0 | 5.0 | 0.00 | 0.01 | 0.01 | 71 | 1010.6 |
| 20260508230831 | 75 | 150 | 5.0 | 7.0 | 0.00 | 0.01 | 0.01 | 70 | 1010.7 |
| 20260508225842 | 75 | 193 | 5.0 | 8.0 | 0.00 | 0.01 | 0.01 | 69 | 1010.6 |
| 20260508224929 | 75 | 193 | 6.0 | 9.0 | 0.00 | 0.01 | 0.01 | 69 | 1010.5 |
| 20260508223929 | 76 | 139 | 5.0 | 10.0 | 0.00 | 0.01 | 0.01 | 67 | 1010.4 |
| 20260508222930 | 75 | 175 | 8.0 | 12.0 | 0.00 | 0.01 | 0.01 | 68 | 1010.3 |
| 20260508221929 | 74 | 164 | 7.0 | 11.0 | 0.00 | 0.01 | 0.01 | 69 | 1010.4 |
| 20260508220028 | 75 | 151 | 5.0 | 9.0 | 0.00 | 0.01 | 0.01 | 66 | 1010.7 |
| 20260508215030 | 75 | 175 | 7.0 | 11.0 | 0.00 | 0.01 | 0.01 | 66 | 1010.8 |
| 20260508214030 | 74 | 123 | 5.0 | 6.0 | 0.00 | 0.01 | 0.01 | 66 | 1011.0 |
| 20260508213032 | 75 | 146 | 6.0 | 9.0 | 0.00 | 0.01 | 0.01 | 64 | 1011.0 |
| 20260508212128 | 74 | 168 | 6.0 | 10.0 | 0.00 | 0.01 | 0.01 | 66 | 1011.1 |
| 20260508211135 | 73 | 144 | 6.0 | 10.0 | 0.00 | 0.01 | 0.01 | 66 | 1011.4 |
| 20260508210130 | 73 | 160 | 6.0 | 11.0 | 0.00 | 0.01 | 0.01 | 66 | 1011.7 |
| 20260508205131 | 73 | 126 | 4.0 | 6.0 | 0.00 | 0.01 | 0.01 | 66 | 1012.0 |
| 20260508204129 | 73 | 198 | 5.0 | 9.0 | 0.00 | 0.01 | 0.01 | 66 | 1012.2 |
| 20260508203229 | 73 | 142 | 6.0 | 8.0 | 0.00 | 0.01 | 0.01 | 65 | 1012.0 |
| 20260508203132 | 73 | 143 | 8.0 | 12.0 | 0.00 | 0.01 | 0.01 | 65 | 1012.1 |
| 20260508202229 | 70 | 108 | 4.0 | 6.0 | 0.00 | 0.01 | 0.01 | 68 | 1012.0 |